Hattiesburg, MS (39401)

10:00 AM CDT on May 25, 2015 (GMT -0500)
Chain Municipal | | Change Station
CLOSE
Current Station
Airport
Location: Hattiesburg,
Elevation: 151 ft
Nearby Weather Stations

Elev 151 ft 31.27 °N, 89.26 °W | Updated 7 minutes ago

Scattered Clouds
Scattered Clouds
72 °F
Feels Like 72 °F
N
5
Wind Variable Wind from ESE

Today
High -- | Low -- °F
--% Chance of Precip.
Yesterday
High -- | Low -- °F
Precip. -- in
5:56 AM 7:52 PM
Waxing Crescent, 49% visible
Pressure 30.12 in
Visibility 10.0 miles
Clouds Few 9500 ft
Scattered Clouds 12000 ft
Dew Point 68 °F
Humidity 87%
Rainfall 0.23 in
Snow Depth Not available.
UV 6 out of 12
Pollen 2.90 out of 12
Air Quality Not available.
Flu Activity No Activity
METAR KHBG 251453Z AUTO 12004KT 10SM FEW095 SCT120 22/20 A3012 RMK AO2 RAE00 SLP197 P0000 60014 T02220200 50010

More Conditions Fewer Conditions

Pressure 30.12 in
Visibility 10.0 miles
Clouds Few 9500 ft
Scattered Clouds 12000 ft
Dew Point 68 °F
Humidity 87%
Rainfall 0.23 in
Snow Depth Not available.
UV 6 out of 12
Pollen 2.90 out of 12
Air Quality Not available.
Flu Activity No Activity
METAR KHBG 251453Z AUTO 12004KT 10SM FEW095 SCT120 22/20 A3012 RMK AO2 RAE00 SLP197 P0000 60014 T02220200 50010

More Conditions Fewer Conditions

10-Day Weather Forecast

Almanac

Astronomy

May. 25, 2015 Rise Set
Actual Time
Civil Twilight
Nautical Twilight
Astronomical Twilight
Moon
Length of Visible Light
Length of Day
Tomorrow will be .
, % of the Moon is Illuminated

Today's Extremes

State Highs State Lows

Community

WunderPhotos

Upload Photos

1,824,028 photos uploaded!

WunderBlogs® & News

Nearby

Air Quality

  Air Quality AQ Index Pollutant
Not available.

Snow Depth

Station Depth Elevation

Earthquake Activity

City Distance Mag. Time & Date
Minimum magnitude displayed is 2.5.

Coastal Water Temperatures

Place Temperature

Stations

Nearby Weather Stations

Station Location Temp. Windchill Dew Point Humidity Wind Precip. Elev Updated Type